Time;durP1;ratioP1;P1;durP2;ratioP2;P2;SDS_P1;SDS_P2;PMS_P1;PMS_P2;Temp;Humidity;BMP_temperature;BMP_pressure;BME280_temperature;BME280_humidity;BME280_pressure;Samples;Min_cycle;Max_cycle;Signal;HPM_P1;HPM_P2
2023/01/09 00:00:23;;;;;;;42.38;19.08;;;;;;;1.60;70.01;94191.09;5024127;28;20033;-80
2023/01/09 00:02:49;;;;;;;42.05;18.02;;;;;;;1.62;69.62;94185.59;5025290;28;20126;-79
2023/01/09 00:05:16;;;;;;;35.92;15.95;;;;;;;1.58;69.28;94196.59;5025082;28;20025;-79
2023/01/09 00:07:41;;;;;;;36.42;16.63;;;;;;;1.55;69.44;94191.84;5024977;28;20089;-79
2023/01/09 00:10:08;;;;;;;46.20;18.00;;;;;;;1.53;69.51;94193.16;5025004;28;20088;-79
2023/01/09 00:12:34;;;;;;;39.50;17.95;;;;;;;1.50;69.87;94186.53;5024866;28;20022;-80
2023/01/09 00:15:00;;;;;;;46.08;18.23;;;;;;;1.55;69.84;94191.06;5024812;28;20028;-79
2023/01/09 00:17:25;;;;;;;40.40;17.38;;;;;;;1.50;69.75;94176.03;5024916;28;20025;-79
2023/01/09 00:19:51;;;;;;;38.00;16.40;;;;;;;1.49;69.56;94168.41;5025018;28;20025;-80
2023/01/09 00:22:16;;;;;;;37.72;17.60;;;;;;;1.46;69.76;94174.16;5024588;28;20312;-79
2023/01/09 00:24:41;;;;;;;32.65;15.68;;;;;;;1.42;69.79;94178.31;5024885;28;20028;-80
2023/01/09 00:27:07;;;;;;;38.75;17.25;;;;;;;1.40;69.79;94184.63;5024684;28;20026;-79
2023/01/09 00:29:32;;;;;;;35.05;16.88;;;;;;;1.37;69.52;94190.34;5023591;28;20022;-79
2023/01/09 00:31:58;;;;;;;27.33;12.75;;;;;;;1.35;69.87;94187.19;5025111;28;20208;-80
2023/01/09 00:34:24;;;;;;;34.95;15.95;;;;;;;1.32;70.17;94185.06;5024373;28;20030;-79
2023/01/09 00:36:54;;;;;;;39.28;15.13;;;;;;;1.33;70.50;94183.22;5025889;28;20050;-81
2023/01/09 00:39:20;;;;;;;34.53;14.77;;;;;;;1.36;70.22;94188.78;5025447;28;20022;-81
2023/01/09 00:41:50;;;;;;;46.47;18.45;;;;;;;1.31;71.30;94191.34;5025060;28;20320;-80
2023/01/09 00:44:24;;;;;;;42.00;20.08;;;;;;;1.29;72.07;94184.75;5024881;28;20026;-80
2023/01/09 00:46:59;;;;;;;40.10;17.02;;;;;;;1.29;72.18;94180.28;5024951;28;20046;-80
2023/01/09 00:49:32;;;;;;;41.35;19.02;;;;;;;1.27;72.85;94179.75;5024437;28;20091;-80
2023/01/09 00:51:58;;;;;;;43.67;18.38;;;;;;;1.26;72.92;94175.50;5024535;28;20096;-79
2023/01/09 00:54:25;;;;;;;39.25;18.55;;;;;;;1.27;72.40;94176.31;5024399;28;20033;-79
2023/01/09 00:56:50;;;;;;;47.28;19.02;;;;;;;1.31;72.16;94180.84;5024327;28;20033;-79
2023/01/09 00:59:16;;;;;;;36.20;16.90;;;;;;;1.29;72.26;94182.13;5024187;28;20030;-79
2023/01/09 01:01:41;;;;;;;44.28;17.33;;;;;;;1.27;71.97;94185.00;5024123;28;20026;-79
2023/01/09 01:09:35;;;;;;;41.45;16.92;;;;;;;1.32;72.00;94186.88;5024147;28;20024;-79
2023/01/09 01:12:05;;;;;;;34.83;16.25;;;;;;;1.34;71.99;94176.91;5023838;28;20026;-79
2023/01/09 01:14:35;;;;;;;33.80;16.65;;;;;;;1.30;72.26;94162.69;5024030;28;20026;-78
2023/01/09 01:17:01;;;;;;;39.05;17.48;;;;;;;1.26;72.24;94167.63;5023884;28;20316;-79
2023/01/09 01:19:26;;;;;;;31.25;16.10;;;;;;;1.29;71.73;94161.91;5023700;28;20093;-79
2023/01/09 01:21:52;;;;;;;33.10;15.27;;;;;;;1.28;71.55;94159.53;5023989;28;20025;-79
2023/01/09 01:24:18;;;;;;;30.88;13.88;;;;;;;1.27;71.31;94160.56;5023889;28;20212;-79
2023/01/09 01:26:45;;;;;;;29.73;14.70;;;;;;;1.25;70.67;94158.19;5023784;28;20124;-79
2023/01/09 01:29:10;;;;;;;26.13;13.25;;;;;;;1.19;70.41;94156.53;5023770;28;20045;-79
2023/01/09 01:31:36;;;;;;;30.42;14.85;;;;;;;1.13;70.38;94157.53;5023477;28;20025;-79
2023/01/09 01:34:01;;;;;;;31.15;15.27;;;;;;;1.11;70.46;94157.00;5023704;28;20030;-79
2023/01/09 01:36:27;;;;;;;38.13;15.60;;;;;;;1.08;70.96;94153.03;5023579;28;20049;-79
2023/01/09 01:38:52;;;;;;;40.20;15.30;;;;;;;1.08;71.05;94144.34;5023449;28;20041;-79
2023/01/09 01:41:28;;;;;;;33.95;16.23;;;;;;;1.05;71.02;94145.63;5023688;28;20029;-79
2023/01/09 01:43:56;;;;;;;31.60;15.88;;;;;;;1.05;71.19;94139.59;5022702;28;20197;-79
2023/01/09 01:46:23;;;;;;;30.33;14.88;;;;;;;1.02;71.30;94138.25;5023701;28;20323;-79
2023/01/09 01:48:55;;;;;;;33.47;14.43;;;;;;;1.00;71.47;94138.50;5023493;28;20040;-79
2023/01/09 01:51:23;;;;;;;25.38;12.75;;;;;;;1.02;71.22;94127.75;5023867;28;20022;-79
2023/01/09 01:53:52;;;;;;;24.58;11.73;;;;;;;1.02;71.12;94129.56;5023741;28;20029;-79
2023/01/09 01:56:29;;;;;;;27.88;12.75;;;;;;;1.01;71.05;94123.53;5023653;28;20073;-78
2023/01/09 01:59:10;;;;;;;23.33;10.85;;;;;;;0.95;70.91;94114.03;5022332;28;20021;-78
2023/01/09 02:01:39;;;;;;;25.63;11.57;;;;;;;0.94;71.03;94122.94;5023044;28;20224;-78
2023/01/09 02:04:06;;;;;;;26.90;11.52;;;;;;;0.92;71.05;94110.06;5023481;28;20018;-79
2023/01/09 02:06:33;;;;;;;23.10;10.80;;;;;;;0.94;71.20;94105.38;5023496;28;20026;-78
2023/01/09 02:09:00;;;;;;;29.00;10.88;;;;;;;0.94;70.96;94101.97;5023679;28;20273;-78
2023/01/09 02:11:26;;;;;;;21.85;10.65;;;;;;;0.92;71.04;94104.03;5022406;28;20024;-78
2023/01/09 02:13:52;;;;;;;24.90;11.68;;;;;;;0.92;70.86;94098.78;5023509;28;20021;-78
2023/01/09 02:16:23;;;;;;;23.33;12.15;;;;;;;0.90;70.90;94090.38;5023379;28;20024;-78
2023/01/09 02:18:52;;;;;;;30.10;12.45;;;;;;;0.81;71.30;94095.25;5023509;28;20303;-78
2023/01/09 02:21:52;;;;;;;24.30;11.77;;;;;;;0.81;71.56;94103.09;5023221;28;20022;-78
2023/01/09 02:24:53;;;;;;;26.58;11.98;;;;;;;0.80;71.39;94104.94;5023370;28;20033;-79
2023/01/09 02:27:24;;;;;;;30.15;13.27;;;;;;;0.79;71.35;94102.56;4953382;28;20074;-78
2023/01/09 02:30:20;;;;;;;31.17;15.00;;;;;;;0.76;71.89;94106.47;5023230;28;20303;-78
2023/01/09 02:32:54;;;;;;;30.40;13.95;;;;;;;0.74;72.22;94099.91;5022115;28;20026;-78
2023/01/09 02:35:19;;;;;;;34.22;15.02;;;;;;;0.76;72.13;94101.22;5022890;28;20033;-78
2023/01/09 02:38:17;;;;;;;37.88;16.67;;;;;;;0.73;72.38;94090.44;5023012;28;20034;-78
2023/01/09 02:40:52;;;;;;;31.10;15.10;;;;;;;0.73;72.69;94087.81;4979629;28;20038;-78
2023/01/09 02:43:18;;;;;;;35.58;17.25;;;;;;;0.71;72.79;94084.63;5023119;28;20327;-78
2023/01/09 02:45:44;;;;;;;40.60;19.55;;;;;;;0.70;72.94;94090.94;5022819;28;20041;-77
2023/01/09 02:48:10;;;;;;;41.03;19.98;;;;;;;0.70;73.11;94088.31;5022991;28;20195;-78
2023/01/09 02:50:39;;;;;;;41.97;20.70;;;;;;;0.71;74.06;94084.63;5022913;28;20018;-78
2023/01/09 02:53:33;;;;;;;48.95;24.35;;;;;;;0.70;74.23;94090.94;5022789;28;20021;-79
2023/01/09 02:56:54;;;;;;;42.63;22.25;;;;;;;0.68;74.39;94093.78;5022984;28;20033;-78
2023/01/09 02:59:32;;;;;;;43.40;20.48;;;;;;;0.68;74.33;94085.13;4930288;29;20070;-79
2023/01/09 03:02:16;;;;;;;35.13;17.15;;;;;;;0.69;73.87;94086.72;5022808;28;20358;-78
2023/01/09 03:04:57;;;;;;;38.85;16.95;;;;;;;0.68;73.90;94093.78;5022660;28;20040;-79
2023/01/09 03:07:42;;;;;;;28.80;15.10;;;;;;;0.62;73.94;94089.53;5022829;28;20026;-78
2023/01/09 03:10:25;;;;;;;30.90;15.23;;;;;;;0.65;73.77;94083.00;5022666;28;20018;-78
2023/01/09 03:12:53;;;;;;;30.27;15.18;;;;;;;0.67;73.50;94083.53;5022778;28;20032;-78
2023/01/09 03:15:22;;;;;;;35.10;14.57;;;;;;;0.63;73.63;94077.19;5025475;28;20032;-78
2023/01/09 03:17:51;;;;;;;35.70;15.40;;;;;;;0.60;73.51;94087.16;5026056;28;20029;-79
2023/01/09 03:20:21;;;;;;;33.38;15.73;;;;;;;0.59;73.27;94088.19;5026205;28;20097;-79
2023/01/09 03:22:56;;;;;;;34.65;15.85;;;;;;;0.58;73.40;94081.34;5026025;28;20022;-79
2023/01/09 03:25:23;;;;;;;29.17;14.32;;;;;;;0.60;73.26;94088.97;5026139;28;20021;-79
2023/01/09 03:27:55;;;;;;;32.80;15.82;;;;;;;0.62;72.92;94086.13;5025937;28;20212;-78
2023/01/09 03:30:20;;;;;;;36.03;17.05;;;;;;;0.60;73.06;94092.38;5024934;28;20040;-79
2023/01/09 03:32:46;;;;;;;39.08;16.88;;;;;;;0.59;72.74;94087.38;5025774;28;20033;-79
2023/01/09 03:35:11;;;;;;;37.50;19.02;;;;;;;0.58;72.97;94078.72;5025881;28;20069;-79
2023/01/09 03:37:37;;;;;;;34.30;15.27;;;;;;;0.56;73.09;94088.66;5025470;28;20061;-79
2023/01/09 03:40:02;;;;;;;37.47;17.35;;;;;;;0.49;73.41;94088.06;5025582;28;20072;-79
2023/01/09 03:42:28;;;;;;;33.03;15.45;;;;;;;0.52;73.47;94081.53;5025619;28;20022;-79
2023/01/09 03:44:53;;;;;;;35.08;16.02;;;;;;;0.52;73.60;94082.31;5025838;28;20066;-79
2023/01/09 03:47:19;;;;;;;30.50;16.38;;;;;;;0.53;73.84;94091.78;5025740;28;20026;-79
2023/01/09 03:49:44;;;;;;;35.13;16.40;;;;;;;0.53;73.35;94083.94;5025434;28;20044;-79
2023/01/09 03:52:12;;;;;;;36.22;16.85;;;;;;;0.50;73.59;94084.41;5025400;28;20037;-79
2023/01/09 03:54:38;;;;;;;39.13;18.00;;;;;;;0.54;73.39;94089.97;5025395;28;20029;-79
2023/01/09 03:57:04;;;;;;;40.70;20.05;;;;;;;0.54;73.35;94085.50;5025391;28;20029;-79
2023/01/09 03:59:29;;;;;;;43.40;19.80;;;;;;;0.55;73.41;94091.53;5025208;28;20201;-78
2023/01/09 04:01:55;;;;;;;48.10;21.15;;;;;;;0.59;73.65;94079.50;5025064;28;20030;-79
2023/01/09 04:04:20;;;;;;;44.05;20.95;;;;;;;0.61;73.79;94090.56;5025432;28;20030;-78
2023/01/09 04:06:45;;;;;;;42.28;19.48;;;;;;;0.64;73.18;94089.28;5025158;28;20026;-78
2023/01/09 04:09:11;;;;;;;38.35;16.90;;;;;;;0.62;73.39;94088.75;5024887;28;20104;-79
2023/01/09 04:11:36;;;;;;;33.22;15.68;;;;;;;0.58;73.37;94076.09;5025120;28;20347;-79
2023/01/09 04:14:04;;;;;;;25.55;14.40;;;;;;;0.60;73.14;94087.16;5023918;28;20033;-78
2023/01/09 04:16:29;;;;;;;33.78;14.93;;;;;;;0.57;73.38;94079.78;5024919;28;20026;-78
2023/01/09 04:18:54;;;;;;;32.22;13.48;;;;;;;0.59;73.66;94080.31;5023597;28;20053;-77
2023/01/09 04:21:20;;;;;;;24.77;12.70;;;;;;;0.60;73.49;94081.13;5024048;28;20049;-79
2023/01/09 04:23:45;;;;;;;26.50;12.98;;;;;;;0.62;73.38;94081.66;5024849;28;20316;-79
2023/01/09 04:26:11;;;;;;;27.73;12.98;;;;;;;0.59;73.43;94074.25;5024468;28;20022;-79
2023/01/09 04:28:36;;;;;;;31.30;14.85;;;;;;;0.57;73.69;94077.16;5024676;28;20026;-79
2023/01/09 04:31:02;;;;;;;28.25;13.18;;;;;;;0.59;73.36;94079.50;5024540;28;20026;-79
2023/01/09 04:33:27;;;;;;;33.05;13.20;;;;;;;0.55;73.24;94073.97;5024622;28;20022;-79
2023/01/09 04:35:53;;;;;;;29.50;12.52;;;;;;;0.56;73.36;94080.81;5024622;28;20274;-79
2023/01/09 04:38:18;;;;;;;22.85;11.57;;;;;;;0.57;73.55;94082.41;5024674;28;20033;-78
2023/01/09 04:40:46;;;;;;;23.33;11.18;;;;;;;0.57;73.28;94071.91;5024401;28;20026;-78
2023/01/09 04:43:12;;;;;;;24.23;11.15;;;;;;;0.58;73.21;94063.00;5024719;28;20034;-79
2023/01/09 04:45:37;;;;;;;24.77;12.10;;;;;;;0.57;73.04;94065.84;5024578;28;20391;-79
2023/01/09 04:48:04;;;;;;;40.65;16.77;;;;;;;0.57;73.28;94056.16;5024261;28;20211;-79
2023/01/09 04:50:30;;;;;;;44.53;16.95;;;;;;;0.58;73.00;94062.19;5024359;28;20026;-79
2023/01/09 04:52:56;;;;;;;49.70;18.52;;;;;;;0.55;73.05;94062.69;5024195;28;20026;-79
2023/01/09 04:55:21;;;;;;;41.78;16.17;;;;;;;0.56;72.88;94057.19;5024500;28;20022;-79
2023/01/09 04:57:47;;;;;;;36.05;14.07;;;;;;;0.57;72.78;94056.16;5024272;28;20351;-79
2023/01/09 05:00:13;;;;;;;37.35;17.40;;;;;;;0.50;72.91;94057.38;5024184;28;20022;-78
2023/01/09 05:02:39;;;;;;;36.17;15.68;;;;;;;0.52;72.88;94057.94;5024241;28;20041;-78
2023/01/09 05:05:06;;;;;;;33.28;15.52;;;;;;;0.49;72.85;94051.34;5024094;28;20030;-79
2023/01/09 05:07:32;;;;;;;28.80;13.45;;;;;;;0.47;72.81;94058.69;5024001;28;20033;-79
2023/01/09 05:09:58;;;;;;;26.20;13.80;;;;;;;0.44;73.01;94053.91;5022852;28;20029;-79
2023/01/09 05:12:23;;;;;;;25.40;12.88;;;;;;;0.42;73.02;94063.84;5023945;28;20018;-79
2023/01/09 05:14:49;;;;;;;33.75;15.38;;;;;;;0.38;73.07;94063.53;5023922;28;20022;-79
2023/01/09 05:17:14;;;;;;;28.85;14.18;;;;;;;0.35;73.21;94061.41;5023858;28;20026;-79
2023/01/09 05:19:41;;;;;;;28.95;12.30;;;;;;;0.35;73.31;94066.66;5023587;28;20100;-79
2023/01/09 05:22:06;;;;;;;28.17;13.75;;;;;;;0.35;73.83;94079.00;5023657;28;20026;-80
2023/01/09 05:24:32;;;;;;;26.13;12.80;;;;;;;0.36;74.26;94067.44;5023667;28;20021;-79
2023/01/09 05:26:58;;;;;;;24.02;11.70;;;;;;;0.37;74.71;94072.47;5023703;28;20222;-79
2023/01/09 05:29:23;;;;;;;26.90;11.43;;;;;;;0.43;74.65;94075.13;5023941;28;20045;-80
2023/01/09 05:31:49;;;;;;;28.00;13.63;;;;;;;0.46;74.83;94077.28;5023962;28;20341;-79
2023/01/09 05:34:14;;;;;;;24.85;12.70;;;;;;;0.46;74.74;94070.19;5023707;28;20029;-80
2023/01/09 05:36:40;;;;;;;27.48;12.15;;;;;;;0.50;74.96;94063.41;5022779;28;20069;-80
2023/01/09 05:39:06;;;;;;;30.35;12.77;;;;;;;0.45;74.79;94068.63;5023831;28;20029;-81
2023/01/09 05:41:31;;;;;;;27.42;12.50;;;;;;;0.47;74.50;94057.88;5024023;28;20032;-80
2023/01/09 05:43:57;;;;;;;26.42;13.52;;;;;;;0.46;74.45;94061.53;5023765;28;20049;-79
2023/01/09 05:46:22;;;;;;;25.27;13.18;;;;;;;0.44;74.37;94051.28;5022665;28;20021;-80
2023/01/09 05:48:48;;;;;;;27.73;13.82;;;;;;;0.48;73.84;94051.59;5023673;28;20018;-82
2023/01/09 05:51:13;;;;;;;29.92;14.30;;;;;;;0.40;73.51;94055.44;5024081;28;20030;-80
2023/01/09 05:53:38;;;;;;;32.13;16.52;;;;;;;0.35;73.98;94058.78;5024544;28;20318;-81
2023/01/09 05:56:04;;;;;;;31.08;16.60;;;;;;;0.36;73.84;94046.47;5023981;28;20110;-80
2023/01/09 05:58:30;;;;;;;33.47;16.15;;;;;;;0.36;73.90;94051.72;5023308;28;20141;-80
2023/01/09 06:00:56;;;;;;;34.80;16.52;;;;;;;0.36;73.74;94060.38;5023701;28;20029;-80
2023/01/09 06:03:22;;;;;;;33.15;16.23;;;;;;;0.36;74.00;94054.34;5023834;28;20022;-79
2023/01/09 06:05:47;;;;;;;30.58;15.15;;;;;;;0.36;73.86;94054.34;5023139;28;20390;-80
2023/01/09 06:08:13;;;;;;;31.25;15.55;;;;;;;0.37;73.70;94046.22;5023210;28;20022;-80
2023/01/09 06:10:38;;;;;;;36.40;16.05;;;;;;;0.38;73.31;94047.03;5022942;28;20022;-80
2023/01/09 06:13:03;;;;;;;34.83;16.00;;;;;;;0.37;73.70;94054.09;5023169;28;20018;-79
2023/01/09 06:15:29;;;;;;;33.90;17.15;;;;;;;0.39;74.06;94052.03;5023088;28;20032;-79
2023/01/09 06:17:55;;;;;;;31.60;16.83;;;;;;;0.42;74.46;94048.13;5022932;28;20025;-79
2023/01/09 06:20:20;;;;;;;41.50;17.95;;;;;;;0.46;74.43;94051.03;5023015;28;20025;-79
2023/01/09 06:22:45;;;;;;;45.83;17.85;;;;;;;0.48;74.50;94041.09;5022772;28;20048;-80
2023/01/09 06:25:11;;;;;;;35.78;17.05;;;;;;;0.53;74.21;94044.59;5023106;28;20021;-80
2023/01/09 06:27:37;;;;;;;41.70;16.45;;;;;;;0.55;74.20;94047.75;5022811;28;20018;-80
2023/01/09 06:30:03;;;;;;;36.53;17.50;;;;;;;0.59;74.05;94046.22;5022962;28;20080;-80
2023/01/09 06:32:28;;;;;;;36.83;16.83;;;;;;;0.64;73.90;94044.69;5021768;28;20093;-80
2023/01/09 06:34:54;;;;;;;38.22;16.55;;;;;;;0.64;73.87;94040.22;5022917;28;20093;-80
2023/01/09 06:37:19;;;;;;;38.40;15.98;;;;;;;0.68;73.75;94040.53;5022829;28;20362;-80
2023/01/09 06:39:45;;;;;;;33.20;17.02;;;;;;;0.73;73.60;94043.19;5022726;28;20037;-80
2023/01/09 06:42:10;;;;;;;49.22;19.52;;;;;;;0.77;73.78;94037.22;5022776;28;20022;-80
2023/01/09 06:44:36;;;;;;;40.45;18.45;;;;;;;0.82;73.50;94041.72;5021618;28;20033;-80
2023/01/09 06:47:02;;;;;;;36.63;16.48;;;;;;;0.85;73.74;94046.47;5022556;28;20022;-80
2023/01/09 06:49:27;;;;;;;29.55;15.45;;;;;;;0.90;73.56;94049.16;5026082;28;20048;-81
2023/01/09 06:51:53;;;;;;;33.58;15.02;;;;;;;0.95;73.77;94046.56;5026755;28;20029;-80
2023/01/09 06:54:19;;;;;;;26.08;13.77;;;;;;;0.97;73.60;94044.50;5026498;28;20022;-80
2023/01/09 06:56:45;;;;;;;29.90;14.70;;;;;;;0.99;73.99;94041.63;5026450;28;20045;-80
2023/01/09 06:59:11;;;;;;;23.27;13.32;;;;;;;1.09;73.75;94043.56;5026052;28;20311;-80
2023/01/09 07:01:38;;;;;;;33.20;15.90;;;;;;;1.13;73.95;94036.78;5026188;28;20018;-81
2023/01/09 07:04:05;;;;;;;43.15;14.48;;;;;;;1.23;74.09;94047.34;5026200;28;20215;-78
2023/01/09 07:06:31;;;;;;;37.42;15.05;;;;;;;1.32;74.06;94045.06;5024967;28;20247;-77
2023/01/09 07:08:56;;;;;;;26.45;13.50;;;;;;;1.40;73.89;94048.03;5025826;28;20024;-74
2023/01/09 07:11:22;;;;;;;29.33;15.25;;;;;;;1.54;73.88;94026.59;5025920;28;20121;-83
2023/01/09 07:13:47;;;;;;;31.02;14.98;;;;;;;1.63;73.91;94026.88;5026019;28;20049;-84
2023/01/09 07:16:12;;;;;;;31.33;16.13;;;;;;;1.69;73.96;94026.69;5024795;28;20033;-77
2023/01/09 07:18:38;;;;;;;34.22;15.75;;;;;;;1.76;73.68;94024.63;5025821;28;20049;-84
2023/01/09 07:21:05;;;;;;;32.17;16.45;;;;;;;1.87;73.50;94030.72;5025606;28;20270;-78
2023/01/09 07:23:30;;;;;;;46.42;19.77;;;;;;;1.99;73.18;94043.69;5025629;28;20320;-79
2023/01/09 07:25:57;;;;;;;48.00;21.38;;;;;;;2.10;72.70;94047.97;5025753;28;20034;-78
2023/01/09 07:28:22;;;;;;;54.55;20.17;;;;;;;2.21;72.49;94040.91;5025732;28;20258;-78
2023/01/09 07:30:48;;;;;;;52.80;22.60;;;;;;;2.31;72.39;94029.66;5025512;28;20092;-78
2023/01/09 07:33:13;;;;;;;63.40;23.90;;;;;;;2.39;72.20;94032.56;5025374;28;20025;-77
2023/01/09 07:35:39;;;;;;;61.38;25.33;;;;;;;2.50;72.08;94035.22;5025252;28;20038;-77
2023/01/09 07:38:04;;;;;;;60.30;21.92;;;;;;;2.58;71.81;94035.50;5025293;28;20052;-77
2023/01/09 07:40:29;;;;;;;62.70;23.05;;;;;;;2.69;71.80;94040.84;5025301;28;20091;-77
2023/01/09 07:42:55;;;;;;;55.63;21.98;;;;;;;2.78;71.46;94040.06;5025013;28;20097;-77
2023/01/09 07:45:20;;;;;;;60.92;22.23;;;;;;;2.88;71.28;94054.31;5024057;28;20025;-77
2023/01/09 07:47:45;;;;;;;64.22;22.35;;;;;;;3.01;70.95;94048.53;5024042;28;20053;-77
2023/01/09 07:50:11;;;;;;;53.20;20.50;;;;;;;3.12;70.64;94046.72;5025081;28;20320;-76
2023/01/09 07:52:37;;;;;;;52.03;20.55;;;;;;;3.24;70.66;94044.63;5024457;28;20033;-79
2023/01/09 07:55:06;;;;;;;53.53;20.50;;;;;;;3.36;70.06;94060.97;5025223;28;20026;-79
2023/01/09 07:57:31;;;;;;;43.63;19.67;;;;;;;3.52;69.26;94051.22;5025010;28;20029;-79
2023/01/09 07:59:59;;;;;;;53.45;17.88;;;;;;;3.60;69.50;94055.97;5023952;28;20304;-80
2023/01/09 08:02:25;;;;;;;49.05;17.05;;;;;;;3.65;69.62;94057.81;5024738;28;20029;-78
2023/01/09 08:04:51;;;;;;;32.35;15.15;;;;;;;3.73;69.48;94057.28;5025313;28;20278;-78
2023/01/09 08:07:16;;;;;;;31.83;14.07;;;;;;;3.78;68.56;94051.97;5024937;28;20033;-76
2023/01/09 08:09:42;;;;;;;33.30;14.63;;;;;;;3.84;68.57;94062.53;5024851;28;20049;-76
2023/01/09 08:12:07;;;;;;;29.42;12.90;;;;;;;3.92;68.34;94060.16;5024581;28;20185;-77
2023/01/09 08:14:34;;;;;;;38.53;14.80;;;;;;;4.03;68.13;94058.31;5024750;28;20068;-76
2023/01/09 08:17:02;;;;;;;27.23;14.10;;;;;;;4.15;68.02;94056.16;5024679;28;20068;-76
2023/01/09 08:19:28;;;;;;;35.47;14.65;;;;;;;4.25;67.42;94057.97;5024473;28;20025;-77
2023/01/09 08:21:53;;;;;;;34.20;14.80;;;;;;;4.32;67.40;94055.84;5024651;28;20025;-77
2023/01/09 08:24:19;;;;;;;29.20;13.98;;;;;;;4.38;67.50;94064.56;5024615;28;20064;-77
2023/01/09 08:26:46;;;;;;;36.90;15.00;;;;;;;4.40;67.30;94059.78;5024612;28;20060;-75
2023/01/09 08:29:12;;;;;;;31.15;15.45;;;;;;;4.46;67.29;94053.44;5024728;28;20092;-76
2023/01/09 08:31:37;;;;;;;32.17;16.05;;;;;;;4.57;66.82;94060.25;5024277;28;20033;-76
2023/01/09 08:34:03;;;;;;;46.55;17.10;;;;;;;4.68;66.40;94047.81;5024476;28;20092;-77
2023/01/09 08:36:28;;;;;;;41.05;17.92;;;;;;;4.79;66.46;94053.81;5023111;28;20282;-77
2023/01/09 08:38:54;;;;;;;29.48;13.65;;;;;;;4.90;65.29;94059.84;5024147;28;20040;-76
2023/01/09 08:47:05;;;;;;;42.10;18.73;;;;;;;5.04;64.52;94052.91;5024243;28;20084;-81
2023/01/09 08:49:36;;;;;;;41.65;18.67;;;;;;;5.11;64.98;94042.00;5023940;28;20021;-81
2023/01/09 08:52:05;;;;;;;37.55;16.90;;;;;;;5.24;64.76;94041.41;5024233;28;20025;-78
2023/01/09 08:54:30;;;;;;;41.53;16.42;;;;;;;5.34;64.37;94054.56;5022831;28;20034;-75
2023/01/09 08:56:56;;;;;;;61.22;14.68;;;;;;;5.45;64.16;94042.06;5023936;28;20025;-79
2023/01/09 08:59:21;;;;;;;41.85;14.20;;;;;;;5.56;63.81;94040.91;5022910;28;20026;-79
2023/01/09 09:01:47;;;;;;;34.75;14.02;;;;;;;5.69;62.42;94034.19;5023926;28;20072;-77
2023/01/09 09:04:12;;;;;;;37.00;13.48;;;;;;;5.75;62.35;94030.44;5023688;28;20316;-78
2023/01/09 09:06:38;;;;;;;30.67;14.57;;;;;;;5.78;62.04;94014.03;5023936;28;20021;-77
2023/01/09 09:09:05;;;;;;;38.33;14.40;;;;;;;5.81;61.79;94024.03;5023730;28;20025;-77
2023/01/09 09:11:34;;;;;;;28.63;14.23;;;;;;;5.89;61.81;94019.22;5023700;28;20029;-79
2023/01/09 09:14:00;;;;;;;39.67;14.38;;;;;;;5.97;61.86;94022.06;5023513;28;20018;-78
2023/01/09 09:16:28;;;;;;;31.60;15.55;;;;;;;5.99;61.71;94004.06;5023676;28;20064;-78
2023/01/09 09:18:54;;;;;;;28.65;13.60;;;;;;;6.07;61.18;94007.97;5023650;28;20030;-77
2023/01/09 09:21:19;;;;;;;28.90;15.00;;;;;;;6.07;61.30;93996.59;5023888;28;20059;-77
2023/01/09 09:23:45;;;;;;;32.90;14.98;;;;;;;6.11;61.16;93995.75;5023327;28;20068;-77
2023/01/09 09:26:11;;;;;;;33.97;17.08;;;;;;;6.19;61.01;93989.84;5023629;28;20028;-80
2023/01/09 09:28:36;;;;;;;38.42;15.65;;;;;;;6.27;61.00;93987.63;5023514;28;20136;-78
2023/01/09 09:31:06;;;;;;;31.48;16.50;;;;;;;6.32;61.08;93984.94;5023525;28;20017;-78
2023/01/09 09:33:31;;;;;;;38.28;17.88;;;;;;;6.43;60.44;93984.53;5023267;28;20024;-78
2023/01/09 09:35:59;;;;;;;35.75;18.33;;;;;;;6.46;60.39;93972.56;5023429;28;20284;-77
2023/01/09 09:38:25;;;;;;;33.40;16.75;;;;;;;6.54;60.23;93971.94;5023381;28;20045;-78
2023/01/09 09:44:41;;;;;;;39.28;18.00;;;;;;;6.61;60.35;93974.22;5023916;28;20017;-78
2023/01/09 09:47:05;;;;;;;35.72;17.10;;;;;;;6.76;60.18;93944.13;5023224;28;20028;-77
2023/01/09 09:49:51;;;;;;;34.65;15.82;;;;;;;6.87;59.70;93936.81;5023166;28;20272;-77
2023/01/09 09:52:42;;;;;;;34.63;15.50;;;;;;;6.97;59.29;93924.19;5023299;28;20053;-79
2023/01/09 09:55:22;;;;;;;30.20;14.75;;;;;;;7.01;58.44;93927.84;5023207;28;20346;-80
2023/01/09 09:57:49;;;;;;;32.72;16.05;;;;;;;7.09;58.20;93910.50;5023354;28;20276;-80
2023/01/09 10:00:18;;;;;;;34.72;16.42;;;;;;;7.14;58.21;93907.75;5023033;28;20041;-77
2023/01/09 10:03:00;;;;;;;36.45;16.83;;;;;;;7.23;58.70;93886.69;5021637;28;20101;-78
2023/01/09 10:05:34;;;;;;;36.45;17.25;;;;;;;7.31;58.50;93885.25;5022944;28;20028;-79
2023/01/09 10:08:29;;;;;;;35.85;16.48;;;;;;;7.41;57.47;93866.50;5022861;28;20208;-76
2023/01/09 10:10:54;;;;;;;34.35;16.80;;;;;;;7.38;57.61;93864.41;5022891;28;20067;-79
2023/01/09 10:16:21;;;;;;;40.83;16.10;;;;;;;7.43;57.66;93861.69;5022491;28;20049;-79
2023/01/09 10:19:21;;;;;;;46.55;16.98;;;;;;;7.52;57.18;93848.53;5022525;28;20054;-79
2023/01/09 10:21:57;;;;;;;41.97;17.02;;;;;;;7.57;56.96;93853.72;4999282;28;20033;-79
2023/01/09 10:25:04;;;;;;;38.05;17.02;;;;;;;7.59;56.82;93854.22;5026131;28;20045;-79
2023/01/09 10:27:43;;;;;;;31.13;15.70;;;;;;;7.66;56.85;93843.25;5026608;28;20208;-79
2023/01/09 10:30:12;;;;;;;33.25;15.20;;;;;;;7.75;56.75;93842.22;5026727;28;20316;-79
2023/01/09 10:32:43;;;;;;;35.90;15.60;;;;;;;7.86;56.31;93845.50;5026614;28;20033;-79
2023/01/09 10:35:24;;;;;;;51.17;16.38;;;;;;;7.92;56.15;93835.56;5026597;28;20047;-79
2023/01/09 10:37:52;;;;;;;32.42;15.63;;;;;;;8.01;55.93;93833.78;5026727;28;20034;-80
2023/01/09 10:40:27;;;;;;;34.42;14.75;;;;;;;8.13;55.08;93835.94;5026464;28;20037;-80
2023/01/09 10:43:04;;;;;;;32.13;14.23;;;;;;;8.31;54.68;93842.19;5026595;28;20310;-80
2023/01/09 10:45:46;;;;;;;27.65;13.95;;;;;;;8.42;54.56;93825.75;5026375;28;20022;-79
2023/01/09 10:48:36;;;;;;;38.13;15.00;;;;;;;8.53;53.75;93828.16;5026324;28;20308;-79
2023/01/09 10:51:10;;;;;;;32.97;16.00;;;;;;;8.60;53.50;93815.28;5026130;28;20052;-80
2023/01/09 10:53:41;;;;;;;30.98;15.30;;;;;;;8.70;53.43;93806.28;5025940;28;20029;-79
2023/01/09 10:56:17;;;;;;;31.83;14.55;;;;;;;8.82;53.64;93809.19;5026021;28;20022;-79
2023/01/09 10:58:43;;;;;;;31.63;14.35;;;;;;;8.90;53.47;93800.47;5025896;28;20145;-79
2023/01/09 11:01:09;;;;;;;30.95;16.58;;;;;;;9.00;53.41;93786.94;5026332;28;20332;-79
2023/01/09 11:03:34;;;;;;;43.47;16.80;;;;;;;9.16;52.82;93790.00;5026583;28;20029;-80
2023/01/09 11:06:02;;;;;;;36.67;16.60;;;;;;;8.98;52.76;93780.34;5025254;28;20026;-79
2023/01/09 11:08:34;;;;;;;34.70;16.02;;;;;;;9.09;52.99;93771.03;5026188;28;20085;-81
2023/01/09 11:11:01;;;;;;;37.13;16.67;;;;;;;9.21;53.31;93770.47;5026153;28;20197;-80
2023/01/09 11:13:35;;;;;;;33.53;15.68;;;;;;;9.31;52.86;93772.06;5026187;28;20017;-80
2023/01/09 11:16:06;;;;;;;32.38;15.38;;;;;;;9.45;52.49;93770.09;5025861;28;20067;-79
2023/01/09 11:18:36;;;;;;;27.10;15.83;;;;;;;9.52;51.94;93772.28;5025689;28;20014;-80
2023/01/09 11:21:12;;;;;;;37.03;17.20;;;;;;;9.49;51.96;93771.03;5025796;28;20052;-76
2023/01/09 11:23:38;;;;;;;30.48;15.77;;;;;;;9.45;51.83;93770.09;5025617;28;20038;-78
2023/01/09 11:26:03;;;;;;;32.17;14.90;;;;;;;9.47;52.00;93753.81;5025797;28;20017;-78
2023/01/09 11:28:29;;;;;;;31.63;15.00;;;;;;;9.54;51.60;93767.44;5025792;28;20020;-83
2023/01/09 11:31:00;;;;;;;31.02;14.50;;;;;;;9.48;52.00;93755.38;5025634;28;20376;-77
2023/01/09 11:33:33;;;;;;;26.23;14.25;;;;;;;9.54;51.58;93754.16;5025637;28;20033;-81
2023/01/09 11:36:04;;;;;;;28.13;14.30;;;;;;;9.62;51.69;93756.06;5022782;28;20045;-75
2023/01/09 11:38:54;;;;;;;29.35;14.02;;;;;;;9.60;51.88;93742.28;5025481;28;20259;-78
2023/01/09 11:41:22;;;;;;;31.38;13.85;;;;;;;9.60;51.81;93739.59;5013835;28;20026;-77
2023/01/09 11:43:50;;;;;;;34.03;13.98;;;;;;;9.54;51.45;93754.94;5025404;28;20014;-78
2023/01/09 11:46:36;;;;;;;35.30;14.27;;;;;;;9.44;51.57;93734.72;5025338;28;20029;-80
2023/01/09 11:49:05;;;;;;;30.23;13.07;;;;;;;9.40;52.04;93741.75;5025474;28;20092;-79